Time;durP1;ratioP1;P1;durP2;ratioP2;P2;SDS_P1;SDS_P2;PMS_P1;PMS_P2;Temp;Humidity;BMP_temperature;BMP_pressure;BME280_temperature;BME280_humidity;BME280_pressure;Samples;Min_cycle;Max_cycle;Signal;HPM_P1;HPM_P2
2023/04/13 00:02:11;;;;;;;2.40;0.60;;;7.10;99.90;;;;;;5071765;28;20047;-42
2023/04/13 00:04:37;;;;;;;0.60;0.50;;;7.00;99.90;;;;;;5073318;28;20078;-46
2023/04/13 00:07:03;;;;;;;2.95;0.75;;;7.00;99.90;;;;;;5071790;28;20021;-45
2023/04/13 00:09:31;;;;;;;0.98;0.70;;;7.00;99.90;;;;;;5073534;28;20031;-43
2023/04/13 00:11:57;;;;;;;7.28;0.60;;;7.00;99.90;;;;;;5058085;28;20066;-46
2023/04/13 00:14:32;;;;;;;1.33;0.80;;;7.00;99.90;;;;;;5053192;28;20474;-41
2023/04/13 00:16:58;;;;;;;0.70;0.60;;;7.10;99.90;;;;;;5051969;28;20052;-42
2023/04/13 00:19:24;;;;;;;7.57;0.82;;;7.10;99.90;;;;;;5056214;28;20084;-46
2023/04/13 00:21:52;;;;;;;4.10;0.80;;;7.10;99.90;;;;;;5067204;28;20021;-42
2023/04/13 00:24:18;;;;;;;;;;;7.10;99.90;;;;;;5073453;28;20016;-45
2023/04/13 00:26:45;;;;;;;0.80;0.40;;;7.10;99.90;;;;;;5071811;28;20376;-46
2023/04/13 00:29:11;;;;;;;2.72;0.73;;;7.10;99.90;;;;;;5072945;28;20021;-43
2023/04/13 00:31:36;;;;;;;1.73;0.63;;;7.10;99.90;;;;;;5072328;28;20028;-42
2023/04/13 00:34:03;;;;;;;3.25;0.57;;;7.10;99.90;;;;;;5071725;28;20469;-43
2023/04/13 00:36:28;;;;;;;5.88;0.70;;;7.10;99.90;;;;;;5069836;28;20483;-41
2023/04/13 00:38:56;;;;;;;1.48;0.80;;;7.10;99.90;;;;;;5059624;28;20056;-45
2023/04/13 00:41:23;;;;;;;0.85;0.50;;;7.10;99.90;;;;;;5072926;28;20059;-43
2023/04/13 00:43:49;;;;;;;3.55;0.90;;;7.10;99.90;;;;;;5071491;28;20047;-48
2023/04/13 00:46:19;;;;;;;2.63;0.60;;;7.10;99.90;;;;;;5068033;28;20488;-41
2023/04/13 00:48:47;;;;;;;0.30;0.30;;;7.10;99.90;;;;;;5069932;28;20060;-42
2023/04/13 00:51:16;;;;;;;3.37;0.90;;;7.20;99.90;;;;;;5070148;28;20532;-41
2023/04/13 00:53:42;;;;;;;2.75;0.75;;;7.20;99.90;;;;;;5072438;28;20263;-41
2023/04/13 00:56:09;;;;;;;0.88;0.50;;;7.20;99.90;;;;;;5072964;28;20461;-41
2023/04/13 00:58:36;;;;;;;1.20;0.70;;;7.10;99.90;;;;;;5064520;28;20036;-44
2023/04/13 01:01:02;;;;;;;3.17;1.10;;;7.20;99.90;;;;;;5052366;28;20512;-40
2023/04/13 01:03:28;;;;;;;3.65;0.50;;;7.20;99.90;;;;;;5057561;28;20531;-42
2023/04/13 01:05:59;;;;;;;1.35;0.65;;;7.20;99.90;;;;;;5069882;28;20021;-40
2023/04/13 01:08:38;;;;;;;2.30;0.60;;;7.20;99.90;;;;;;5072282;28;20016;-40
2023/04/13 01:11:11;;;;;;;1.35;0.47;;;7.20;99.90;;;;;;5071453;28;20035;-42
2023/04/13 01:13:51;;;;;;;2.50;0.82;;;7.10;99.90;;;;;;5072546;28;20071;-41
2023/04/13 01:16:24;;;;;;;1.02;0.50;;;7.10;99.90;;;;;;5058501;28;20474;-45
2023/04/13 01:18:52;;;;;;;1.25;0.70;;;7.10;99.90;;;;;;5052340;28;20029;-41
2023/04/13 01:21:20;;;;;;;;;;;7.20;99.90;;;;;;5051662;28;20051;-41
2023/04/13 01:24:24;;;;;;;5.05;0.57;;;7.20;99.90;;;;;;5052305;28;20353;-42
2023/04/13 01:27:11;;;;;;;4.00;0.95;;;7.20;99.90;;;;;;5052042;28;20547;-43
2023/04/13 01:29:38;;;;;;;1.42;0.80;;;7.20;99.90;;;;;;5052861;28;20489;-42
2023/04/13 01:32:05;;;;;;;1.42;1.15;;;7.20;99.90;;;;;;5053230;28;20123;-42
2023/04/13 01:34:32;;;;;;;0.88;0.88;;;7.20;99.90;;;;;;5065520;28;20029;-41
2023/04/13 01:36:57;;;;;;;3.25;1.95;;;7.30;99.90;;;;;;5074974;28;20473;-41
2023/04/13 01:39:30;;;;;;;0.90;0.90;;;7.20;99.90;;;;;;5075834;28;20031;-41
2023/04/13 01:41:56;;;;;;;1.35;1.00;;;7.30;99.90;;;;;;5076374;28;20033;-41
2023/04/13 01:44:22;;;;;;;2.38;1.38;;;7.30;99.90;;;;;;5067618;28;20071;-40
2023/04/13 01:46:56;;;;;;;1.13;1.02;;;7.30;99.90;;;;;;5055934;28;20021;-42
2023/04/13 01:49:22;;;;;;;2.88;1.02;;;7.20;99.90;;;;;;5056264;28;20024;-44
2023/04/13 01:51:50;;;;;;;4.65;1.08;;;7.20;99.90;;;;;;5066762;28;20024;-42
2023/04/13 01:54:24;;;;;;;0.93;0.93;;;7.20;99.90;;;;;;5075840;28;20523;-42
2023/04/13 01:56:50;;;;;;;2.70;0.73;;;7.20;99.90;;;;;;5075858;28;20467;-42
2023/04/13 01:59:16;;;;;;;1.70;0.90;;;7.20;99.90;;;;;;5075361;28;20384;-41
2023/04/13 02:01:42;;;;;;;1.85;0.70;;;7.20;99.90;;;;;;5074068;28;20039;-42
2023/04/13 02:04:08;;;;;;;0.50;0.50;;;7.30;99.90;;;;;;5075616;28;20059;-41
2023/04/13 02:06:36;;;;;;;0.95;0.73;;;7.30;99.90;;;;;;5070587;28;20032;-41
2023/04/13 02:09:05;;;;;;;1.63;0.80;;;7.30;99.90;;;;;;5067631;28;20473;-41
2023/04/13 02:11:32;;;;;;;5.15;0.88;;;7.30;99.90;;;;;;5074116;28;20420;-40
2023/04/13 02:13:58;;;;;;;1.65;0.90;;;7.20;99.90;;;;;;5075397;28;20531;-42
2023/04/13 02:16:24;;;;;;;2.42;0.90;;;7.20;99.90;;;;;;5074244;28;20024;-42
2023/04/13 02:18:50;;;;;;;2.33;0.70;;;7.20;99.90;;;;;;5062029;28;20047;-46
2023/04/13 02:21:16;;;;;;;2.40;0.35;;;7.20;99.90;;;;;;5074332;28;20028;-43
2023/04/13 02:23:42;;;;;;;0.57;0.30;;;7.30;99.90;;;;;;5074631;28;20023;-41
2023/04/13 02:26:11;;;;;;;1.73;0.60;;;7.20;99.90;;;;;;5075248;28;20032;-41
2023/04/13 02:28:37;;;;;;;0.57;0.57;;;7.20;99.90;;;;;;5073563;28;20138;-42
2023/04/13 02:31:04;;;;;;;0.40;0.40;;;7.20;99.90;;;;;;5072954;28;20039;-40
2023/04/13 02:33:31;;;;;;;1.85;0.50;;;7.10;99.90;;;;;;5075041;28;20480;-39
2023/04/13 02:35:57;;;;;;;2.72;0.73;;;7.10;99.90;;;;;;5075267;28;20503;-41
2023/04/13 02:38:24;;;;;;;4.03;0.57;;;7.10;99.90;;;;;;5074487;28;20023;-42
2023/04/13 02:40:57;;;;;;;1.75;0.63;;;7.10;99.90;;;;;;5075151;28;20036;-41
2023/04/13 02:43:25;;;;;;;0.98;0.55;;;7.20;99.90;;;;;;5075004;28;20146;-42
2023/04/13 02:45:51;;;;;;;2.88;0.50;;;7.10;99.90;;;;;;5075227;28;20024;-42
2023/04/13 02:48:17;;;;;;;1.38;0.60;;;7.10;99.90;;;;;;5074765;28;20108;-44
2023/04/13 02:50:43;;;;;;;4.35;0.85;;;7.00;99.90;;;;;;5074675;28;20048;-42
2023/04/13 02:53:08;;;;;;;6.65;0.85;;;7.00;99.90;;;;;;5074737;28;20025;-41
2023/04/13 02:55:34;;;;;;;0.85;0.82;;;7.00;99.90;;;;;;5074082;28;20036;-43
2023/04/13 02:58:01;;;;;;;1.23;1.00;;;7.00;99.90;;;;;;5074668;28;20028;-43
2023/04/13 03:00:27;;;;;;;6.70;1.00;;;6.90;99.90;;;;;;5074162;28;20048;-41
2023/04/13 03:02:53;;;;;;;2.25;0.93;;;6.90;99.90;;;;;;5073141;28;20493;-41
2023/04/13 03:05:19;;;;;;;4.05;0.80;;;6.90;99.90;;;;;;5074751;28;20086;-42
2023/04/13 03:07:44;;;;;;;1.15;0.95;;;6.90;99.90;;;;;;5074476;28;20028;-41
2023/04/13 03:10:10;;;;;;;1.20;0.60;;;6.90;99.90;;;;;;5074712;28;20024;-41
2023/04/13 03:12:36;;;;;;;1.63;0.70;;;7.00;99.90;;;;;;5073620;28;20025;-37
2023/04/13 03:15:03;;;;;;;3.38;0.80;;;6.90;99.90;;;;;;5074317;28;20029;-40
2023/04/13 03:17:29;;;;;;;4.30;1.05;;;6.90;99.90;;;;;;5074336;28;20033;-42
2023/04/13 03:19:56;;;;;;;2.63;1.35;;;6.90;99.90;;;;;;5074130;28;20025;-40
2023/04/13 03:22:22;;;;;;;3.63;0.70;;;6.90;99.90;;;;;;5074146;28;20020;-42
2023/04/13 03:24:48;;;;;;;3.00;1.00;;;7.00;99.90;;;;;;5073191;28;20020;-45
2023/04/13 03:27:14;;;;;;;4.88;1.10;;;7.00;99.90;;;;;;5073970;28;20017;-42
2023/04/13 03:29:40;;;;;;;4.55;0.95;;;7.00;99.90;;;;;;5072542;28;20111;-42
2023/04/13 03:32:06;;;;;;;5.97;0.75;;;7.00;99.90;;;;;;5073939;28;20104;-41
2023/04/13 03:34:31;;;;;;;2.22;1.13;;;7.00;99.90;;;;;;5073815;28;20501;-44
2023/04/13 03:36:57;;;;;;;4.63;0.80;;;7.00;99.90;;;;;;5073612;28;20023;-43
2023/04/13 03:39:22;;;;;;;2.38;0.65;;;7.00;99.90;;;;;;5073740;28;20036;-42
2023/04/13 03:41:48;;;;;;;2.03;0.47;;;7.10;99.90;;;;;;5073747;28;20029;-42
2023/04/13 03:44:14;;;;;;;2.35;0.52;;;7.10;99.90;;;;;;5073692;28;20420;-44
2023/04/13 03:46:40;;;;;;;0.98;0.60;;;7.10;99.90;;;;;;5072969;28;20016;-42
2023/04/13 03:49:08;;;;;;;0.82;0.50;;;7.20;99.90;;;;;;5073822;28;20499;-37
2023/04/13 03:51:35;;;;;;;3.88;0.60;;;7.10;99.90;;;;;;5071894;28;20021;-41
2023/04/13 03:54:00;;;;;;;1.23;0.77;;;7.20;99.90;;;;;;5073273;28;20024;-39
2023/04/13 03:56:26;;;;;;;1.85;0.63;;;7.20;99.90;;;;;;5073034;28;20092;-37
2023/04/13 03:58:53;;;;;;;3.13;0.65;;;7.30;99.90;;;;;;5073589;28;20552;-39
2023/04/13 04:01:19;;;;;;;2.13;0.52;;;7.30;99.90;;;;;;5073139;28;20382;-37
2023/04/13 04:03:44;;;;;;;0.80;0.20;;;7.30;99.90;;;;;;5072498;28;20028;-35
2023/04/13 04:06:10;;;;;;;1.58;0.60;;;7.30;99.90;;;;;;5073298;28;20020;-36
2023/04/13 04:08:36;;;;;;;4.55;0.73;;;7.30;99.90;;;;;;5073469;28;20104;-38
2023/04/13 04:11:03;;;;;;;1.10;0.40;;;7.30;99.90;;;;;;5058654;28;20083;-41
2023/04/13 04:13:28;;;;;;;2.92;0.90;;;7.20;99.90;;;;;;5053538;28;20033;-41
2023/04/13 04:15:55;;;;;;;3.10;0.68;;;7.30;99.90;;;;;;5053156;28;20075;-42
2023/04/13 04:18:21;;;;;;;6.40;1.08;;;7.30;99.90;;;;;;5053434;28;20497;-43
2023/04/13 04:20:47;;;;;;;2.97;0.50;;;7.30;99.90;;;;;;5060819;28;20063;-44
2023/04/13 04:23:14;;;;;;;1.25;0.60;;;7.30;99.90;;;;;;5073100;28;20100;-43
2023/04/13 04:25:40;;;;;;;5.88;0.55;;;7.30;99.90;;;;;;5073056;28;20100;-43
2023/04/13 04:28:06;;;;;;;4.63;0.90;;;7.40;99.90;;;;;;5072921;28;20021;-45
2023/04/13 04:30:32;;;;;;;5.72;1.15;;;7.40;99.90;;;;;;5072974;28;20055;-41
2023/04/13 04:33:01;;;;;;;2.38;1.35;;;7.50;99.90;;;;;;5072996;28;20495;-41
2023/04/13 04:35:34;;;;;;;12.48;1.15;;;7.50;99.90;;;;;;5072861;28;20031;-47
2023/04/13 04:38:05;;;;;;;5.03;0.55;;;7.60;99.90;;;;;;5072510;28;20389;-44
2023/04/13 04:40:34;;;;;;;3.45;0.95;;;7.60;99.90;;;;;;5072994;28;20473;-49
2023/04/13 04:43:01;;;;;;;3.95;1.20;;;7.60;99.90;;;;;;5073010;28;20613;-44
2023/04/13 04:45:27;;;;;;;2.20;0.93;;;7.60;99.90;;;;;;5073003;28;20141;-45
2023/04/13 04:47:56;;;;;;;7.88;1.13;;;7.60;99.90;;;;;;5072762;28;20571;-43
2023/04/13 04:50:22;;;;;;;5.90;0.68;;;7.60;99.90;;;;;;5072957;28;20477;-43
2023/04/13 04:52:48;;;;;;;2.63;0.70;;;7.60;99.90;;;;;;5072909;28;20505;-42
2023/04/13 04:55:13;;;;;;;6.93;0.80;;;7.60;99.90;;;;;;5072036;28;20028;-45
2023/04/13 04:57:39;;;;;;;5.05;1.15;;;7.50;99.90;;;;;;5072671;28;20032;-40
2023/04/13 05:00:14;;;;;;;5.47;1.08;;;7.50;99.90;;;;;;5072569;28;20043;-39
2023/04/13 05:02:40;;;;;;;7.72;1.52;;;7.50;99.90;;;;;;5072548;28;20102;-41
2023/04/13 05:05:07;;;;;;;8.25;0.98;;;7.50;99.90;;;;;;5072903;28;20431;-41
2023/04/13 05:07:33;;;;;;;8.65;1.40;;;7.60;99.90;;;;;;5073866;28;20032;-43
2023/04/13 05:09:59;;;;;;;4.45;1.33;;;7.70;99.90;;;;;;5076584;28;20028;-47
2023/04/13 05:12:25;;;;;;;8.48;0.98;;;7.70;99.90;;;;;;5075957;28;20059;-42
2023/04/13 05:14:50;;;;;;;7.05;1.00;;;7.80;99.90;;;;;;5076911;28;20062;-44
2023/04/13 05:17:19;;;;;;;6.97;1.05;;;7.80;99.90;;;;;;5076572;28;20064;-41
2023/04/13 05:19:46;;;;;;;4.47;1.27;;;7.80;99.90;;;;;;5076448;28;20090;-44
2023/04/13 05:22:13;;;;;;;6.53;1.00;;;7.70;99.90;;;;;;5076704;28;20050;-42
2023/04/13 05:24:39;;;;;;;9.23;1.10;;;7.70;99.90;;;;;;5076242;28;20419;-46
2023/04/13 05:27:07;;;;;;;2.42;1.05;;;7.70;99.90;;;;;;5076628;28;20048;-43
2023/04/13 05:29:34;;;;;;;3.40;1.02;;;7.60;99.90;;;;;;5062971;28;20436;-47
2023/04/13 05:32:00;;;;;;;2.72;0.55;;;7.60;99.90;;;;;;5065504;28;20107;-41
2023/04/13 05:34:26;;;;;;;6.15;0.77;;;7.60;99.90;;;;;;5076199;28;20491;-44
2023/04/13 05:36:52;;;;;;;4.80;0.90;;;7.60;99.90;;;;;;5075589;28;20033;-39
2023/04/13 05:39:19;;;;;;;2.67;1.40;;;7.60;99.90;;;;;;5076227;28;20497;-39
2023/04/13 05:41:44;;;;;;;3.40;1.08;;;7.50;99.90;;;;;;5076268;28;20078;-38
2023/04/13 05:44:10;;;;;;;9.73;1.15;;;7.50;99.90;;;;;;5075913;28;20029;-38
2023/04/13 05:46:36;;;;;;;4.93;0.85;;;7.50;99.90;;;;;;5075303;28;20044;-42
2023/04/13 05:49:02;;;;;;;8.18;1.33;;;7.60;99.90;;;;;;5075682;28;20032;-42
2023/04/13 05:51:32;;;;;;;2.67;0.82;;;7.60;99.90;;;;;;5067647;28;20055;-41
2023/04/13 05:53:58;;;;;;;2.38;1.13;;;7.60;99.90;;;;;;5056909;28;20485;-39
2023/04/13 05:56:28;;;;;;;6.63;1.02;;;7.60;99.90;;;;;;5055719;28;20031;-38
2023/04/13 05:58:54;;;;;;;14.93;1.20;;;7.60;99.90;;;;;;5056267;28;20021;-38
2023/04/13 06:01:22;;;;;;;3.85;1.17;;;7.60;99.90;;;;;;5054100;28;20064;-41
2023/04/13 06:03:48;;;;;;;5.72;0.68;;;7.70;99.90;;;;;;5055588;28;20492;-41
2023/04/13 06:06:16;;;;;;;9.00;1.27;;;7.70;99.90;;;;;;5059078;28;20039;-38
2023/04/13 06:08:41;;;;;;;;;;;7.80;99.90;;;;;;5072711;28;20012;-40
2023/04/13 06:11:08;;;;;;;0.77;0.77;;;7.80;99.90;;;;;;5057903;28;19931;-38
2023/04/13 06:13:34;;;;;;;3.70;0.60;;;7.80;99.90;;;;;;5055072;28;20071;-39
2023/04/13 06:15:59;;;;;;;7.25;0.82;;;7.80;99.90;;;;;;5055034;28;20076;-41
2023/04/13 06:18:26;;;;;;;5.80;0.65;;;7.80;99.90;;;;;;5054786;28;20075;-41
2023/04/13 06:20:52;;;;;;;2.38;0.70;;;7.80;99.90;;;;;;5056391;28;20021;-40
2023/04/13 06:23:17;;;;;;;3.85;0.65;;;7.90;99.90;;;;;;5065206;28;20032;-42
2023/04/13 06:25:44;;;;;;;3.13;1.10;;;8.10;99.90;;;;;;5055655;28;20024;-38
2023/04/13 06:28:11;;;;;;;1.70;0.45;;;8.20;99.90;;;;;;5071624;28;20017;-35
2023/04/13 06:30:37;;;;;;;8.05;0.63;;;8.20;99.90;;;;;;5074819;28;20033;-39
2023/04/13 06:33:03;;;;;;;1.95;0.50;;;8.20;99.90;;;;;;5074562;28;20098;-38
2023/04/13 06:35:29;;;;;;;1.92;0.50;;;8.20;99.90;;;;;;5074901;28;20021;-36
2023/04/13 06:37:58;;;;;;;2.38;0.60;;;8.20;99.90;;;;;;5074672;28;20051;-42
2023/04/13 06:40:24;;;;;;;2.70;0.88;;;8.20;99.90;;;;;;5073998;28;20033;-39
2023/04/13 06:42:50;;;;;;;3.88;0.68;;;8.10;99.90;;;;;;5074505;28;20028;-40
2023/04/13 06:45:16;;;;;;;3.85;1.83;;;8.20;99.90;;;;;;5074745;28;20350;-38
2023/04/13 06:47:42;;;;;;;2.35;0.93;;;8.20;99.90;;;;;;5073925;28;20020;-40
2023/04/13 06:50:10;;;;;;;4.38;0.98;;;8.20;99.90;;;;;;5074464;28;20074;-38
2023/04/13 06:52:36;;;;;;;6.38;0.90;;;8.30;99.90;;;;;;5072950;28;20476;-37
2023/04/13 06:55:02;;;;;;;6.40;1.10;;;8.60;99.90;;;;;;5059745;28;20500;-42
2023/04/13 06:57:29;;;;;;;4.32;0.80;;;8.80;99.90;;;;;;5073511;28;20032;-40
2023/04/13 06:59:55;;;;;;;2.75;0.90;;;8.70;99.90;;;;;;5069697;28;20036;-40
2023/04/13 07:02:21;;;;;;;5.05;1.80;;;8.70;99.90;;;;;;5057447;28;20041;-39
2023/04/13 07:04:47;;;;;;;3.17;0.98;;;8.60;99.90;;;;;;5070193;28;20059;-38
2023/04/13 07:07:13;;;;;;;8.50;1.00;;;8.60;99.90;;;;;;5064295;28;20110;-39
2023/04/13 07:09:38;;;;;;;3.78;1.80;;;8.70;99.90;;;;;;5058383;28;20502;-40
2023/04/13 07:12:06;;;;;;;15.45;1.30;;;9.00;99.90;;;;;;5055909;28;20100;-39
2023/04/13 07:14:35;;;;;;;6.53;1.38;;;9.30;99.90;;;;;;5054251;28;20473;-40
2023/04/13 07:17:02;;;;;;;2.08;1.10;;;9.40;99.90;;;;;;5055779;28;20029;-42
2023/04/13 07:19:32;;;;;;;9.65;1.20;;;9.30;99.90;;;;;;5053458;28;20029;-38
2023/04/13 07:21:58;;;;;;;8.40;1.00;;;9.00;99.90;;;;;;5054092;28;20119;-38
2023/04/13 07:24:27;;;;;;;13.45;1.50;;;8.70;99.90;;;;;;5056546;28;20036;-39
2023/04/13 07:26:57;;;;;;;4.20;0.68;;;8.50;99.90;;;;;;5063291;28;20538;-40
2023/04/13 07:29:24;;;;;;;5.70;0.77;;;8.40;99.90;;;;;;5069701;28;20033;-38
2023/04/13 07:31:50;;;;;;;5.07;0.85;;;8.40;99.90;;;;;;5062643;28;20025;-40
2023/04/13 07:34:16;;;;;;;8.73;1.88;;;8.50;99.90;;;;;;5066084;28;20029;-38
2023/04/13 07:36:42;;;;;;;7.45;1.00;;;8.60;99.90;;;;;;5065010;28;20437;-41
2023/04/13 07:39:08;;;;;;;3.72;1.40;;;8.70;99.90;;;;;;5069687;28;20059;-41
2023/04/13 07:41:37;;;;;;;13.13;1.10;;;8.90;99.90;;;;;;5067101;28;20131;-42
2023/04/13 07:44:04;;;;;;;3.10;1.05;;;9.00;99.90;;;;;;5055606;28;20017;-42
2023/04/13 07:46:30;;;;;;;8.07;1.08;;;9.20;99.90;;;;;;5072973;28;20056;-41
2023/04/13 07:48:56;;;;;;;14.98;1.67;;;9.30;99.90;;;;;;5058544;28;20029;-47
2023/04/13 07:51:22;;;;;;;15.57;1.50;;;9.50;99.90;;;;;;5061354;28;20028;-44
2023/04/13 07:53:47;;;;;;;6.25;1.20;;;9.90;99.90;;;;;;5071300;28;20028;-44
2023/04/13 07:56:14;;;;;;;10.63;1.35;;;10.20;99.90;;;;;;5073463;28;20031;-43
2023/04/13 07:58:40;;;;;;;4.47;1.02;;;10.30;99.90;;;;;;5070369;28;20107;-43
2023/04/13 08:01:06;;;;;;;14.40;2.22;;;10.30;99.90;;;;;;5069193;28;20077;-42
2023/04/13 08:03:33;;;;;;;10.40;2.28;;;10.20;99.90;;;;;;5070096;28;20123;-44
2023/04/13 08:05:59;;;;;;;12.35;1.13;;;10.00;99.90;;;;;;5068677;28;20038;-45
2023/04/13 08:08:25;;;;;;;5.63;1.33;;;10.00;99.90;;;;;;5071699;28;20039;-44
2023/04/13 08:10:51;;;;;;;11.60;1.92;;;10.00;99.90;;;;;;5065550;28;20457;-45
2023/04/13 08:13:17;;;;;;;8.50;2.15;;;9.90;99.90;;;;;;5070904;28;20039;-45
2023/04/13 08:15:43;;;;;;;9.48;1.30;;;10.00;99.90;;;;;;5069043;28;20551;-42
2023/04/13 08:18:08;;;;;;;15.57;1.45;;;10.00;99.90;;;;;;5071952;28;20055;-42
2023/04/13 08:20:36;;;;;;;8.32;1.70;;;10.00;99.90;;;;;;5069786;28;20093;-41
2023/04/13 08:23:02;;;;;;;19.48;1.65;;;9.90;99.90;;;;;;5072619;28;20105;-43
2023/04/13 08:25:28;;;;;;;14.10;1.98;;;9.90;99.90;;;;;;5069014;28;20032;-43
2023/04/13 08:27:54;;;;;;;10.25;2.22;;;9.90;99.90;;;;;;5066856;28;20025;-44
2023/04/13 08:30:20;;;;;;;7.55;1.73;;;10.00;99.90;;;;;;5064016;28;20388;-41
2023/04/13 08:32:45;;;;;;;10.15;1.35;;;10.00;99.90;;;;;;5071013;28;20036;-47
2023/04/13 08:35:11;;;;;;;16.38;2.10;;;10.00;99.90;;;;;;5069382;28;20149;-47
2023/04/13 08:37:41;;;;;;;4.38;1.10;;;10.00;99.90;;;;;;5064877;28;20440;-42
2023/04/13 08:40:10;;;;;;;11.60;1.55;;;10.10;99.90;;;;;;5062366;28;20024;-39
2023/04/13 08:42:37;;;;;;;8.82;1.52;;;10.10;99.90;;;;;;5051789;28;20385;-40
2023/04/13 08:45:04;;;;;;;6.85;1.80;;;10.10;99.90;;;;;;5052446;28;20115;-39
2023/04/13 08:47:29;;;;;;;4.93;1.17;;;10.20;99.90;;;;;;5052410;28;20029;-37
2023/04/13 08:50:00;;;;;;;7.07;1.20;;;10.20;99.90;;;;;;5051973;28;20028;-40
2023/04/13 08:52:27;;;;;;;8.95;1.23;;;10.20;99.90;;;;;;5068250;28;20033;-39
2023/04/13 08:54:54;;;;;;;8.18;1.75;;;10.30;99.90;;;;;;5069981;28;20112;-38
2023/04/13 08:57:21;;;;;;;14.85;1.02;;;10.40;99.90;;;;;;5072596;28;20036;-36
2023/04/13 08:59:49;;;;;;;9.55;1.90;;;10.30;99.90;;;;;;5070685;28;20037;-40
2023/04/13 09:02:16;;;;;;;12.20;1.52;;;10.30;99.90;;;;;;5069938;28;20500;-39
2023/04/13 09:04:43;;;;;;;6.43;1.23;;;10.50;99.90;;;;;;5072955;28;20043;-42
2023/04/13 09:07:14;;;;;;;18.25;2.00;;;10.50;99.90;;;;;;5072753;28;20020;-36
2023/04/13 09:09:42;;;;;;;9.70;1.92;;;10.50;99.90;;;;;;5067934;28;20029;-37
2023/04/13 09:12:08;;;;;;;14.60;1.50;;;10.80;99.90;;;;;;5068783;28;20480;-40
2023/04/13 09:14:37;;;;;;;11.65;2.28;;;10.70;99.90;;;;;;5067336;28;20090;-41
2023/04/13 09:17:03;;;;;;;10.23;1.20;;;10.70;99.90;;;;;;5069680;28;20487;-38
2023/04/13 09:19:32;;;;;;;8.02;2.33;;;10.80;99.90;;;;;;5072421;28;20032;-41
2023/04/13 09:21:58;;;;;;;9.40;1.02;;;10.90;99.90;;;;;;5064269;28;20515;-39
2023/04/13 09:24:24;;;;;;;14.50;1.70;;;10.90;99.90;;;;;;5052035;28;20100;-37
2023/04/13 09:26:50;;;;;;;7.97;1.05;;;11.00;99.90;;;;;;5068715;28;20024;-40
2023/04/13 09:29:17;;;;;;;3.05;1.23;;;11.00;99.90;;;;;;5072403;28;20085;-38
2023/04/13 09:31:44;;;;;;;5.13;0.85;;;11.00;99.90;;;;;;5071732;28;20108;-49
2023/04/13 09:34:10;;;;;;;3.50;1.38;;;11.10;99.90;;;;;;5072374;28;20024;-46
2023/04/13 09:36:36;;;;;;;6.07;1.40;;;11.30;99.90;;;;;;5069455;28;20439;-42
2023/04/13 09:39:03;;;;;;;21.30;3.13;;;11.40;99.90;;;;;;5060094;28;20025;-46
2023/04/13 09:41:30;;;;;;;9.93;1.43;;;11.50;99.90;;;;;;5069800;28;20025;-45
2023/04/13 09:43:57;;;;;;;12.52;1.65;;;11.40;99.90;;;;;;5072075;28;20024;-48
2023/04/13 09:46:23;;;;;;;7.70;1.10;;;11.50;99.90;;;;;;5070327;28;20131;-47
2023/04/13 09:48:59;;;;;;;14.00;1.92;;;11.60;99.90;;;;;;5056784;28;20108;-39
2023/04/13 09:51:26;;;;;;;8.00;1.33;;;11.70;99.90;;;;;;5060232;28;20538;-49
2023/04/13 09:53:52;;;;;;;6.78;1.27;;;12.00;99.90;;;;;;5071726;28;20024;-46
2023/04/13 09:56:19;;;;;;;8.15;1.13;;;12.10;99.90;;;;;;5076071;28;20021;-42
2023/04/13 09:58:46;;;;;;;6.28;1.25;;;12.00;99.90;;;;;;5075697;28;20111;-41
2023/04/13 10:01:16;;;;;;;5.35;1.52;;;11.90;99.90;;;;;;5074131;28;20164;-43
2023/04/13 10:03:42;;;;;;;7.80;1.25;;;11.80;99.90;;;;;;5074184;28;20020;-43
2023/04/13 10:06:09;;;;;;;8.77;1.20;;;11.80;99.90;;;;;;5074613;28;20701;-48
2023/04/13 10:08:38;;;;;;;6.93;1.15;;;11.60;99.90;;;;;;5061187;28;20552;-43
2023/04/13 10:11:10;;;;;;;5.10;1.38;;;11.50;99.90;;;;;;5054278;28;20066;-46
2023/04/13 10:13:51;;;;;;;5.35;1.40;;;11.40;99.90;;;;;;5063843;28;20545;-45
2023/04/13 10:16:47;;;;;;;12.50;1.35;;;11.20;99.90;;;;;;5075395;28;20032;-46
2023/04/13 10:19:18;;;;;;;9.95;1.38;;;11.20;99.90;;;;;;5062359;28;20066;-49
2023/04/13 10:21:47;;;;;;;13.80;1.92;;;11.30;99.90;;;;;;5075333;28;20040;-44
2023/04/13 10:24:14;;;;;;;8.38;1.67;;;11.40;99.90;;;;;;5070310;28;20481;-43
2023/04/13 10:26:40;;;;;;;5.75;1.15;;;11.60;99.90;;;;;;5068136;28;20021;-46
2023/04/13 10:29:08;;;;;;;7.68;1.85;;;11.50;99.90;;;;;;5055468;28;20017;-47
2023/04/13 10:31:36;;;;;;;6.47;0.90;;;11.60;99.90;;;;;;5055180;28;20036;-45
2023/04/13 10:34:03;;;;;;;3.22;1.10;;;11.50;99.90;;;;;;5053674;28;20483;-44
2023/04/13 10:36:43;;;;;;;10.35;1.40;;;11.60;99.90;;;;;;5055302;28;20029;-49
2023/04/13 10:39:10;;;;;;;5.30;1.65;;;11.90;99.90;;;;;;5055356;28;20025;-44
2023/04/13 10:41:36;;;;;;;10.10;1.40;;;12.10;99.90;;;;;;5054950;28;20104;-43
2023/04/13 10:44:03;;;;;;;10.13;1.33;;;12.20;99.90;;;;;;5063550;28;20548;-44
2023/04/13 10:46:30;;;;;;;2.95;1.20;;;12.20;99.90;;;;;;5075169;28;20499;-43
2023/04/13 10:48:59;;;;;;;8.13;1.30;;;12.10;99.90;;;;;;5074771;28;20028;-43
2023/04/13 10:51:45;;;;;;;5.90;0.85;;;12.10;99.90;;;;;;5073540;28;20523;-44
2023/04/13 10:54:12;;;;;;;10.23;1.50;;;12.20;99.90;;;;;;5071757;28;20063;-45
2023/04/13 10:56:39;;;;;;;8.80;1.30;;;12.10;99.90;;;;;;5074908;28;20361;-48
2023/04/13 10:59:05;;;;;;;1.73;0.80;;;12.00;99.90;;;;;;5063048;28;20284;-46
2023/04/13 11:01:31;;;;;;;9.73;1.40;;;11.80;99.90;;;;;;5054376;28;20033;-42
2023/04/13 11:04:03;;;;;;;3.72;1.42;;;11.90;99.90;;;;;;5065560;28;20036;-46
2023/04/13 11:06:35;;;;;;;9.38;1.27;;;11.80;99.90;;;;;;5074784;28;20031;-43
2023/04/13 11:09:05;;;;;;;5.68;1.00;;;11.80;99.90;;;;;;5062798;28;20079;-34
2023/04/13 11:11:31;;;;;;;11.02;1.30;;;11.60;99.90;;;;;;5054332;28;20025;-35
2023/04/13 11:13:57;;;;;;;7.28;1.45;;;11.60;99.90;;;;;;5063879;28;20033;-38
2023/04/13 11:16:22;;;;;;;8.57;1.08;;;11.60;99.90;;;;;;5074253;28;20112;-38
2023/04/13 11:18:58;;;;;;;3.72;1.10;;;11.60;99.90;;;;;;5063152;28;20025;-40
2023/04/13 11:21:24;;;;;;;4.45;1.15;;;11.70;99.90;;;;;;5057420;28;20037;-39
2023/04/13 11:23:54;;;;;;;3.88;1.13;;;11.80;99.90;;;;;;5054806;28;20507;-39
2023/04/13 11:26:34;;;;;;;8.40;0.95;;;11.70;99.90;;;;;;5053966;28;20038;-39
2023/04/13 11:29:01;;;;;;;9.70;1.50;;;11.60;99.90;;;;;;5053556;28;20029;-34
2023/04/13 11:31:40;;;;;;;4.07;1.52;;;11.60;99.90;;;;;;5059373;28;20032;-39
2023/04/13 11:34:10;;;;;;;7.63;1.13;;;11.60;99.90;;;;;;5072253;28;20039;-39
2023/04/13 11:36:38;;;;;;;6.63;1.02;;;11.50;99.90;;;;;;5071797;28;20063;-38
2023/04/13 11:39:08;;;;;;;10.80;1.98;;;11.60;99.90;;;;;;5066377;28;20497;-36
2023/04/13 11:41:43;;;;;;;3.10;0.98;;;11.70;99.90;;;;;;5054025;28;20075;-38
2023/04/13 11:44:12;;;;;;;7.43;1.60;;;11.80;99.90;;;;;;5057465;28;20381;-38
2023/04/13 11:46:38;;;;;;;3.40;0.93;;;11.80;99.90;;;;;;5073718;28;20024;-40
2023/04/13 11:49:04;;;;;;;13.93;1.35;;;11.90;99.90;;;;;;5073976;28;20017;-40
2023/04/13 11:51:31;;;;;;;8.35;1.52;;;12.20;99.90;;;;;;5073729;28;20469;-37
2023/04/13 11:53:58;;;;;;;6.05;1.15;;;12.40;99.90;;;;;;5064706;28;20029;-39
2023/04/13 11:56:24;;;;;;;15.03;2.10;;;12.40;99.90;;;;;;5053580;28;20107;-38
2023/04/13 11:58:52;;;;;;;4.78;1.33;;;12.20;99.90;;;;;;5053805;28;20390;-37
2023/04/13 12:01:20;;;;;;;14.00;2.03;;;12.10;99.90;;;;;;5053035;28;20056;-41
2023/04/13 12:03:47;;;;;;;10.23;1.73;;;12.20;99.90;;;;;;5058370;28;20052;-34
2023/04/13 12:06:15;;;;;;;9.23;1.45;;;12.20;99.90;;;;;;5071553;28;20024;-37
2023/04/13 12:08:42;;;;;;;8.70;1.73;;;12.10;99.90;;;;;;5072051;28;20473;-38
2023/04/13 12:11:08;;;;;;;7.32;1.60;;;12.10;99.90;;;;;;5060218;28;20480;-41
2023/04/13 12:13:43;;;;;;;7.85;1.20;;;12.20;99.90;;;;;;5058500;28;20029;-38
2023/04/13 12:16:09;;;;;;;7.22;1.33;;;12.20;99.90;;;;;;5071382;28;20385;-37
2023/04/13 12:18:45;;;;;;;7.63;1.67;;;12.10;99.90;;;;;;5066389;28;20469;-39
2023/04/13 12:21:18;;;;;;;9.55;1.20;;;12.20;99.90;;;;;;5053333;28;20478;-34
2023/04/13 12:23:58;;;;;;;4.38;1.23;;;12.80;99.90;;;;;;5063189;28;20485;-38
2023/04/13 12:26:40;;;;;;;2.65;1.00;;;13.40;99.90;;;;;;5073112;28;20036;-39
2023/04/13 12:29:07;;;;;;;16.73;1.83;;;13.50;99.90;;;;;;5071798;28;20059;-39
2023/04/13 12:31:38;;;;;;;7.53;2.25;;;13.20;99.90;;;;;;5073005;28;20031;-35
2023/04/13 12:34:04;;;;;;;4.82;1.45;;;12.60;99.90;;;;;;5072377;28;20469;-39
2023/04/13 12:36:32;;;;;;;6.82;1.48;;;12.40;99.90;;;;;;5073101;28;20515;-40
2023/04/13 12:38:58;;;;;;;9.85;1.20;;;12.40;99.90;;;;;;5071607;28;20020;-38
2023/04/13 12:41:23;;;;;;;12.93;1.27;;;12.40;99.90;;;;;;5073111;28;20044;-38
2023/04/13 12:43:49;;;;;;;8.07;1.05;;;12.50;99.90;;;;;;5071490;28;20388;-41
2023/04/13 12:46:16;;;;;;;10.57;1.35;;;12.70;99.90;;;;;;5061254;28;20451;-39
2023/04/13 12:48:41;;;;;;;9.93;1.38;;;13.00;99.90;;;;;;5060282;28;20381;-37
2023/04/13 12:51:07;;;;;;;6.65;1.13;;;12.90;99.90;;;;;;5071481;28;20024;-39
2023/04/13 12:53:36;;;;;;;5.82;1.15;;;12.60;99.90;;;;;;5071292;28;20032;-36
2023/04/13 12:56:01;;;;;;;5.53;1.35;;;12.40;99.90;;;;;;5073007;28;20078;-39